sensor_id;sensor_type;location;lat;lon;timestamp;pressure;altitude;pressure_sealevel;temperature;humidity
43814;BME280;29669;55.706;37.656;2022-08-01T00:01:03;100204.13;;;17.79;nan
43814;BME280;29669;55.706;37.656;2022-08-01T00:04:24;100206.34;;;17.75;nan
43814;BME280;29669;55.706;37.656;2022-08-01T00:07:45;100205.94;;;17.72;nan
43814;BME280;29669;55.706;37.656;2022-08-01T00:11:06;100197.25;;;17.65;nan
43814;BME280;29669;55.706;37.656;2022-08-01T00:14:28;100190.16;;;17.59;nan
43814;BME280;29669;55.706;37.656;2022-08-01T00:17:49;100192.56;;;17.54;nan
43814;BME280;29669;55.706;37.656;2022-08-01T00:21:12;100186.69;;;17.52;nan
43814;BME280;29669;55.706;37.656;2022-08-01T00:24:34;100183.66;;;17.48;nan
43814;BME280;29669;55.706;37.656;2022-08-01T00:27:56;100181.78;;;17.42;nan
43814;BME280;29669;55.706;37.656;2022-08-01T00:31:22;100179.75;;;17.38;nan
43814;BME280;29669;55.706;37.656;2022-08-01T00:34:45;100191.63;;;17.34;nan
43814;BME280;29669;55.706;37.656;2022-08-01T00:38:13;100190.03;;;17.33;nan
43814;BME280;29669;55.706;37.656;2022-08-01T00:41:36;100186.16;;;17.29;nan
43814;BME280;29669;55.706;37.656;2022-08-01T00:45:02;100189.41;;;17.31;nan
43814;BME280;29669;55.706;37.656;2022-08-01T00:48:26;100189.22;;;17.32;nan
43814;BME280;29669;55.706;37.656;2022-08-01T00:51:49;100181.94;;;17.28;nan
43814;BME280;29669;55.706;37.656;2022-08-01T00:55:13;100186.13;;;17.22;nan
43814;BME280;29669;55.706;37.656;2022-08-01T00:58:43;100186.13;;;17.16;nan
43814;BME280;29669;55.706;37.656;2022-08-01T01:02:04;100196.19;;;17.12;nan
43814;BME280;29669;55.706;37.656;2022-08-01T01:05:32;100185.03;;;17.04;nan
43814;BME280;29669;55.706;37.656;2022-08-01T01:12:37;100186.81;;;16.97;nan
43814;BME280;29669;55.706;37.656;2022-08-01T01:16:06;100190.47;;;16.96;nan
43814;BME280;29669;55.706;37.656;2022-08-01T01:19:45;100187.44;;;16.99;nan
43814;BME280;29669;55.706;37.656;2022-08-01T01:23:29;100190.13;;;17.05;nan
43814;BME280;29669;55.706;37.656;2022-08-01T01:30:57;100181.53;;;16.90;nan
43814;BME280;29669;55.706;37.656;2022-08-01T01:34:23;100178.91;;;16.90;nan
43814;BME280;29669;55.706;37.656;2022-08-01T01:37:45;100180.53;;;16.91;nan
43814;BME280;29669;55.706;37.656;2022-08-01T01:41:10;100179.34;;;16.93;nan
43814;BME280;29669;55.706;37.656;2022-08-01T01:44:33;100181.78;;;16.95;nan
43814;BME280;29669;55.706;37.656;2022-08-01T01:47:56;100182.19;;;16.99;nan
43814;BME280;29669;55.706;37.656;2022-08-01T01:51:25;100182.19;;;16.99;nan
43814;BME280;29669;55.706;37.656;2022-08-01T01:54:50;100189.88;;;17.00;nan
43814;BME280;29669;55.706;37.656;2022-08-01T01:58:15;100184.06;;;17.05;nan
43814;BME280;29669;55.706;37.656;2022-08-01T02:01:40;100181.22;;;17.06;nan
43814;BME280;29669;55.706;37.656;2022-08-01T02:05:15;100182.03;;;17.07;nan
43814;BME280;29669;55.706;37.656;2022-08-01T02:08:36;100188.53;;;17.17;nan
43814;BME280;29669;55.706;37.656;2022-08-01T02:12:01;100177.47;;;17.22;nan
43814;BME280;29669;55.706;37.656;2022-08-01T02:15:26;100178.91;;;17.31;nan
43814;BME280;29669;55.706;37.656;2022-08-01T02:19:06;100183.81;;;17.47;nan
43814;BME280;29669;55.706;37.656;2022-08-01T02:22:58;100179.44;;;17.54;nan
43814;BME280;29669;55.706;37.656;2022-08-01T02:26:23;100176.63;;;17.62;nan
43814;BME280;29669;55.706;37.656;2022-08-01T02:29:50;100181.31;;;17.73;nan
43814;BME280;29669;55.706;37.656;2022-08-01T02:37:20;100182.53;;;17.83;nan
43814;BME280;29669;55.706;37.656;2022-08-01T02:40:45;100186.59;;;17.86;nan
43814;BME280;29669;55.706;37.656;2022-08-01T02:44:16;100185.78;;;17.92;nan
43814;BME280;29669;55.706;37.656;2022-08-01T02:47:44;100180.94;;;18.02;nan
43814;BME280;29669;55.706;37.656;2022-08-01T02:51:13;100177.09;;;18.11;nan
43814;BME280;29669;55.706;37.656;2022-08-01T02:54:38;100182.78;;;18.21;nan
43814;BME280;29669;55.706;37.656;2022-08-01T02:57:56;100182.78;;;18.34;nan
43814;BME280;29669;55.706;37.656;2022-08-01T03:01:24;100185.03;;;18.44;nan
43814;BME280;29669;55.706;37.656;2022-08-01T03:04:45;100189.25;;;18.51;nan
43814;BME280;29669;55.706;37.656;2022-08-01T03:08:10;100182.81;;;18.54;nan
43814;BME280;29669;55.706;37.656;2022-08-01T03:11:32;100187.03;;;18.61;nan
43814;BME280;29669;55.706;37.656;2022-08-01T03:14:56;100186.22;;;18.67;nan
43814;BME280;29669;55.706;37.656;2022-08-01T03:18:24;100181.38;;;18.71;nan
43814;BME280;29669;55.706;37.656;2022-08-01T03:21:47;100180.94;;;18.81;nan
43814;BME280;29669;55.706;37.656;2022-08-01T03:25:13;100189.81;;;18.86;nan
43814;BME280;29669;55.706;37.656;2022-08-01T03:28:41;100183.75;;;18.92;nan
43814;BME280;29669;55.706;37.656;2022-08-01T03:32:08;100182.13;;;18.98;nan
43814;BME280;29669;55.706;37.656;2022-08-01T03:35:46;100182.91;;;19.05;nan
43814;BME280;29669;55.706;37.656;2022-08-01T03:39:16;100176.81;;;19.11;nan
43814;BME280;29669;55.706;37.656;2022-08-01T03:42:45;100186.06;;;19.20;nan
43814;BME280;29669;55.706;37.656;2022-08-01T03:46:12;100180.59;;;19.28;nan
43814;BME280;29669;55.706;37.656;2022-08-01T03:49:40;100174.09;;;19.37;nan
43814;BME280;29669;55.706;37.656;2022-08-01T03:53:03;100169.00;;;19.42;nan
43814;BME280;29669;55.706;37.656;2022-08-01T03:56:34;100174.84;;;19.50;nan
43814;BME280;29669;55.706;37.656;2022-08-01T04:00:00;100172.38;;;19.55;nan
43814;BME280;29669;55.706;37.656;2022-08-01T04:03:23;100176.59;;;19.63;nan
43814;BME280;29669;55.706;37.656;2022-08-01T04:06:54;100170.25;;;19.70;nan
43814;BME280;29669;55.706;37.656;2022-08-01T04:10:24;100168.56;;;19.83;nan
43814;BME280;29669;55.706;37.656;2022-08-01T04:13:45;100169.34;;;19.90;nan
43814;BME280;29669;55.706;37.656;2022-08-01T04:17:06;100162.00;;;19.98;nan
43814;BME280;29669;55.706;37.656;2022-08-01T04:20:27;100168.00;;;20.05;nan
43814;BME280;29669;55.706;37.656;2022-08-01T04:23:43;100172.81;;;20.15;nan
43814;BME280;29669;55.706;37.656;2022-08-01T04:27:11;100182.31;;;20.22;nan
43814;BME280;29669;55.706;37.656;2022-08-01T04:30:55;100174.94;;;20.31;nan
43814;BME280;29669;55.706;37.656;2022-08-01T04:34:22;100184.38;;;20.38;nan
43814;BME280;29669;55.706;37.656;2022-08-01T04:37:45;100178.84;;;20.46;nan
43814;BME280;29669;55.706;37.656;2022-08-01T04:41:09;100182.81;;;20.55;nan
43814;BME280;29669;55.706;37.656;2022-08-01T04:44:35;100184.75;;;20.67;nan
43814;BME280;29669;55.706;37.656;2022-08-01T04:48:01;100174.94;;;20.74;nan
43814;BME280;29669;55.706;37.656;2022-08-01T04:51:26;100178.47;;;20.86;nan
43814;BME280;29669;55.706;37.656;2022-08-01T04:54:52;100179.81;;;20.95;nan
43814;BME280;29669;55.706;37.656;2022-08-01T04:58:21;100179.50;;;21.03;nan
43814;BME280;29669;55.706;37.656;2022-08-01T05:01:48;100181.44;;;21.14;nan
43814;BME280;29669;55.706;37.656;2022-08-01T05:05:11;100185.16;;;21.24;nan
43814;BME280;29669;55.706;37.656;2022-08-01T05:08:34;100186.47;;;21.33;nan
43814;BME280;29669;55.706;37.656;2022-08-01T05:12:05;100190.41;;;21.42;nan
43814;BME280;29669;55.706;37.656;2022-08-01T05:15:31;100184.81;;;21.50;nan
43814;BME280;29669;55.706;37.656;2022-08-01T05:18:55;100184.75;;;21.57;nan
43814;BME280;29669;55.706;37.656;2022-08-01T05:22:17;100186.03;;;21.66;nan
43814;BME280;29669;55.706;37.656;2022-08-01T05:25:43;100178.97;;;21.78;nan
43814;BME280;29669;55.706;37.656;2022-08-01T05:29:07;100186.94;;;21.90;nan
43814;BME280;29669;55.706;37.656;2022-08-01T05:32:28;100179.50;;;21.98;nan
43814;BME280;29669;55.706;37.656;2022-08-01T05:35:49;100175.16;;;22.04;nan
43814;BME280;29669;55.706;37.656;2022-08-01T05:39:10;100171.38;;;22.11;nan
43814;BME280;29669;55.706;37.656;2022-08-01T05:42:33;100170.00;;;22.20;nan
43814;BME280;29669;55.706;37.656;2022-08-01T05:45:57;100170.59;;;22.34;nan
43814;BME280;29669;55.706;37.656;2022-08-01T05:49:23;100175.41;;;22.48;nan
43814;BME280;29669;55.706;37.656;2022-08-01T05:52:46;100178.09;;;22.60;nan
43814;BME280;29669;55.706;37.656;2022-08-01T05:56:08;100172.56;;;22.73;nan
43814;BME280;29669;55.706;37.656;2022-08-01T05:59:22;100168.31;;;22.84;nan
43814;BME280;29669;55.706;37.656;2022-08-01T06:02:43;100175.44;;;22.95;nan
43814;BME280;29669;55.706;37.656;2022-08-01T06:06:05;100165.06;;;23.05;nan
43814;BME280;29669;55.706;37.656;2022-08-01T06:09:34;100170.09;;;23.18;nan
43814;BME280;29669;55.706;37.656;2022-08-01T06:12:56;100170.41;;;23.33;nan
43814;BME280;29669;55.706;37.656;2022-08-01T06:16:17;100173.91;;;23.50;nan
43814;BME280;29669;55.706;37.656;2022-08-01T06:19:43;100159.63;;;23.68;nan
43814;BME280;29669;55.706;37.656;2022-08-01T06:23:04;100176.38;;;23.85;nan
43814;BME280;29669;55.706;37.656;2022-08-01T06:26:38;100172.31;;;23.94;nan
43814;BME280;29669;55.706;37.656;2022-08-01T06:30:00;100167.91;;;23.99;nan
43814;BME280;29669;55.706;37.656;2022-08-01T06:33:21;100171.78;;;24.08;nan
43814;BME280;29669;55.706;37.656;2022-08-01T06:36:45;100181.00;;;24.22;nan
43814;BME280;29669;55.706;37.656;2022-08-01T06:40:12;100179.66;;;24.37;nan
43814;BME280;29669;55.706;37.656;2022-08-01T06:43:35;100176.41;;;24.51;nan
43814;BME280;29669;55.706;37.656;2022-08-01T06:46:56;100190.72;;;24.67;nan
43814;BME280;29669;55.706;37.656;2022-08-01T06:50:17;100183.75;;;24.77;nan
43814;BME280;29669;55.706;37.656;2022-08-01T06:53:39;100182.06;;;24.93;nan
43814;BME280;29669;55.706;37.656;2022-08-01T06:57:00;100179.91;;;24.90;nan
43814;BME280;29669;55.706;37.656;2022-08-01T07:00:27;100182.22;;;25.03;nan
43814;BME280;29669;55.706;37.656;2022-08-01T07:03:50;100188.28;;;25.20;nan
43814;BME280;29669;55.706;37.656;2022-08-01T07:07:13;100189.06;;;25.42;nan
43814;BME280;29669;55.706;37.656;2022-08-01T07:10:37;100186.78;;;25.51;nan
43814;BME280;29669;55.706;37.656;2022-08-01T07:14:00;100189.88;;;25.43;nan
43814;BME280;29669;55.706;37.656;2022-08-01T07:17:25;100187.84;;;25.28;nan
43814;BME280;29669;55.706;37.656;2022-08-01T07:20:47;100189.38;;;25.24;nan
43814;BME280;29669;55.706;37.656;2022-08-01T07:24:09;100187.94;;;25.38;nan
43814;BME280;29669;55.706;37.656;2022-08-01T07:27:34;100196.31;;;25.47;nan
43814;BME280;29669;55.706;37.656;2022-08-01T07:30:56;100181.81;;;25.59;nan
43814;BME280;29669;55.706;37.656;2022-08-01T07:34:17;100176.34;;;25.71;nan
43814;BME280;29669;55.706;37.656;2022-08-01T07:37:41;100181.66;;;25.71;nan
43814;BME280;29669;55.706;37.656;2022-08-01T07:41:05;100183.78;;;25.69;nan
43814;BME280;29669;55.706;37.656;2022-08-01T07:44:26;100180.13;;;25.75;nan
43814;BME280;29669;55.706;37.656;2022-08-01T07:47:50;100180.00;;;25.91;nan
43814;BME280;29669;55.706;37.656;2022-08-01T07:51:15;100178.63;;;26.16;nan
43814;BME280;29669;55.706;37.656;2022-08-01T07:54:36;100177.53;;;26.43;nan
43814;BME280;29669;55.706;37.656;2022-08-01T07:57:58;100173.56;;;26.51;nan
43814;BME280;29669;55.706;37.656;2022-08-01T08:01:19;100177.63;;;26.58;nan
43814;BME280;29669;55.706;37.656;2022-08-01T08:04:41;100176.06;;;26.67;nan
43814;BME280;29669;55.706;37.656;2022-08-01T08:08:06;100165.72;;;26.71;nan
43814;BME280;29669;55.706;37.656;2022-08-01T08:11:29;100168.72;;;26.79;nan
43814;BME280;29669;55.706;37.656;2022-08-01T08:14:57;100170.66;;;26.99;nan
43814;BME280;29669;55.706;37.656;2022-08-01T08:18:19;100168.31;;;27.08;nan
43814;BME280;29669;55.706;37.656;2022-08-01T08:21:43;100172.22;;;26.95;nan
43814;BME280;29669;55.706;37.656;2022-08-01T08:25:10;100162.09;;;26.92;nan
43814;BME280;29669;55.706;37.656;2022-08-01T08:28:35;100165.84;;;26.91;nan
43814;BME280;29669;55.706;37.656;2022-08-01T08:32:01;100160.22;;;26.87;nan
43814;BME280;29669;55.706;37.656;2022-08-01T08:35:26;100157.81;;;26.86;nan
43814;BME280;29669;55.706;37.656;2022-08-01T08:39:01;100157.59;;;26.92;nan
43814;BME280;29669;55.706;37.656;2022-08-01T08:42:23;100153.56;;;26.90;nan
43814;BME280;29669;55.706;37.656;2022-08-01T08:45:44;100163.06;;;26.71;nan
43814;BME280;29669;55.706;37.656;2022-08-01T08:49:24;100149.47;;;26.72;nan
43814;BME280;29669;55.706;37.656;2022-08-01T08:52:46;100149.81;;;26.81;nan
43814;BME280;29669;55.706;37.656;2022-08-01T08:56:08;100147.16;;;26.86;nan
43814;BME280;29669;55.706;37.656;2022-08-01T08:59:34;100142.16;;;27.05;nan
43814;BME280;29669;55.706;37.656;2022-08-01T09:02:58;100145.19;;;27.23;nan
43814;BME280;29669;55.706;37.656;2022-08-01T09:06:23;100140.72;;;27.44;nan
43814;BME280;29669;55.706;37.656;2022-08-01T09:09:46;100142.34;;;27.60;nan
43814;BME280;29669;55.706;37.656;2022-08-01T09:13:13;100142.09;;;27.76;nan
43814;BME280;29669;55.706;37.656;2022-08-01T09:16:36;100143.16;;;27.80;nan
43814;BME280;29669;55.706;37.656;2022-08-01T09:19:58;100138.94;;;28.10;nan
43814;BME280;29669;55.706;37.656;2022-08-01T09:23:36;100128.75;;;28.32;nan
43814;BME280;29669;55.706;37.656;2022-08-01T09:27:00;100134.34;;;28.45;nan
43814;BME280;29669;55.706;37.656;2022-08-01T09:30:38;100134.03;;;28.62;nan
43814;BME280;29669;55.706;37.656;2022-08-01T09:34:03;100129.72;;;28.81;nan
43814;BME280;29669;55.706;37.656;2022-08-01T09:37:32;100132.84;;;28.98;nan
43814;BME280;29669;55.706;37.656;2022-08-01T09:40:57;100131.75;;;29.14;nan
43814;BME280;29669;55.706;37.656;2022-08-01T09:44:40;100130.59;;;29.25;nan
43814;BME280;29669;55.706;37.656;2022-08-01T09:48:09;100134.03;;;29.31;nan
43814;BME280;29669;55.706;37.656;2022-08-01T09:51:39;100121.44;;;29.36;nan
43814;BME280;29669;55.706;37.656;2022-08-01T09:55:10;100128.84;;;29.49;nan
43814;BME280;29669;55.706;37.656;2022-08-01T09:58:24;100123.44;;;29.59;nan
43814;BME280;29669;55.706;37.656;2022-08-01T10:01:48;100116.56;;;29.48;nan
43814;BME280;29669;55.706;37.656;2022-08-01T10:05:10;100111.75;;;29.45;nan
43814;BME280;29669;55.706;37.656;2022-08-01T10:08:45;100109.31;;;29.49;nan
43814;BME280;29669;55.706;37.656;2022-08-01T10:12:08;100106.88;;;29.52;nan
43814;BME280;29669;55.706;37.656;2022-08-01T10:15:32;100104.38;;;29.66;nan
43814;BME280;29669;55.706;37.656;2022-08-01T10:18:54;100110.19;;;29.78;nan
43814;BME280;29669;55.706;37.656;2022-08-01T10:22:18;100107.16;;;29.90;nan
43814;BME280;29669;55.706;37.656;2022-08-01T10:25:43;100108.28;;;29.84;nan
43814;BME280;29669;55.706;37.656;2022-08-01T10:29:05;100105.38;;;29.80;nan
43814;BME280;29669;55.706;37.656;2022-08-01T10:32:31;100103.00;;;29.74;nan
43814;BME280;29669;55.706;37.656;2022-08-01T10:35:57;100108.88;;;29.76;nan
43814;BME280;29669;55.706;37.656;2022-08-01T10:39:21;100103.91;;;29.93;nan
43814;BME280;29669;55.706;37.656;2022-08-01T10:42:45;100105.56;;;30.46;nan
43814;BME280;29669;55.706;37.656;2022-08-01T10:46:06;100109.44;;;30.82;nan
43814;BME280;29669;55.706;37.656;2022-08-01T10:49:30;100102.44;;;31.05;nan
43814;BME280;29669;55.706;37.656;2022-08-01T10:56:43;100089.91;;;31.19;nan
43814;BME280;29669;55.706;37.656;2022-08-01T11:00:07;100092.13;;;31.30;nan
43814;BME280;29669;55.706;37.656;2022-08-01T11:03:37;100088.44;;;31.08;nan
43814;BME280;29669;55.706;37.656;2022-08-01T11:07:11;100094.91;;;31.07;nan
43814;BME280;29669;55.706;37.656;2022-08-01T11:17:42;100079.84;;;31.11;nan
43814;BME280;29669;55.706;37.656;2022-08-01T11:21:03;100082.50;;;31.11;nan
43814;BME280;29669;55.706;37.656;2022-08-01T11:31:42;100075.63;;;31.23;nan
43814;BME280;29669;55.706;37.656;2022-08-01T11:35:05;100068.72;;;30.99;nan
43814;BME280;29669;55.706;37.656;2022-08-01T11:38:27;100065.91;;;30.67;nan
43814;BME280;29669;55.706;37.656;2022-08-01T11:41:51;100067.47;;;30.49;nan
43814;BME280;29669;55.706;37.656;2022-08-01T11:45:14;100070.94;;;30.49;nan
43814;BME280;29669;55.706;37.656;2022-08-01T11:48:35;100067.41;;;30.54;nan
43814;BME280;29669;55.706;37.656;2022-08-01T11:55:28;100068.84;;;30.46;nan
43814;BME280;29669;55.706;37.656;2022-08-01T11:58:49;100055.28;;;30.38;nan
43814;BME280;29669;55.706;37.656;2022-08-01T12:02:21;100055.63;;;30.26;nan
43814;BME280;29669;55.706;37.656;2022-08-01T12:05:43;100047.00;;;30.11;nan
43814;BME280;29669;55.706;37.656;2022-08-01T12:09:21;100047.94;;;29.62;nan
43814;BME280;29669;55.706;37.656;2022-08-01T12:12:46;100049.19;;;29.41;nan
43814;BME280;29669;55.706;37.656;2022-08-01T12:16:10;100049.88;;;29.23;nan
43814;BME280;29669;55.706;37.656;2022-08-01T12:19:36;100056.06;;;29.14;nan
43814;BME280;29669;55.706;37.656;2022-08-01T12:23:03;100049.88;;;29.23;nan
43814;BME280;29669;55.706;37.656;2022-08-01T12:26:40;100045.88;;;29.54;nan
43814;BME280;29669;55.706;37.656;2022-08-01T12:30:07;100042.63;;;29.91;nan
43814;BME280;29669;55.706;37.656;2022-08-01T12:33:32;100043.44;;;30.15;nan
43814;BME280;29669;55.706;37.656;2022-08-01T12:36:55;100042.91;;;30.18;nan
43814;BME280;29669;55.706;37.656;2022-08-01T12:40:40;100035.56;;;30.00;nan
43814;BME280;29669;55.706;37.656;2022-08-01T12:44:02;100032.00;;;30.10;nan
43814;BME280;29669;55.706;37.656;2022-08-01T12:47:23;100042.66;;;31.55;nan
43814;BME280;29669;55.706;37.656;2022-08-01T12:50:49;100031.28;;;34.09;nan
43814;BME280;29669;55.706;37.656;2022-08-01T12:54:12;100028.00;;;35.29;nan
43814;BME280;29669;55.706;37.656;2022-08-01T12:57:35;100022.81;;;36.54;nan
43814;BME280;29669;55.706;37.656;2022-08-01T13:01:08;100026.50;;;37.52;nan
43814;BME280;29669;55.706;37.656;2022-08-01T13:04:49;100016.00;;;38.44;nan
43814;BME280;29669;55.706;37.656;2022-08-01T13:08:12;100013.25;;;38.96;nan
43814;BME280;29669;55.706;37.656;2022-08-01T13:11:49;100003.56;;;39.22;nan
43814;BME280;29669;55.706;37.656;2022-08-01T13:15:17;99997.06;;;38.99;nan
43814;BME280;29669;55.706;37.656;2022-08-01T13:18:39;100003.03;;;39.91;nan
43814;BME280;29669;55.706;37.656;2022-08-01T13:22:01;100005.75;;;40.92;nan
43814;BME280;29669;55.706;37.656;2022-08-01T13:25:25;100002.94;;;41.49;nan
43814;BME280;29669;55.706;37.656;2022-08-01T13:28:46;99999.44;;;41.94;nan
43814;BME280;29669;55.706;37.656;2022-08-01T13:32:20;99990.47;;;42.46;nan
43814;BME280;29669;55.706;37.656;2022-08-01T13:35:37;99996.56;;;42.95;nan
43814;BME280;29669;55.706;37.656;2022-08-01T13:39:01;100000.22;;;43.43;nan
43814;BME280;29669;55.706;37.656;2022-08-01T13:42:42;99997.75;;;43.31;nan
43814;BME280;29669;55.706;37.656;2022-08-01T13:46:03;100007.16;;;43.73;nan
43814;BME280;29669;55.706;37.656;2022-08-01T13:49:24;100005.94;;;44.15;nan
43814;BME280;29669;55.706;37.656;2022-08-01T13:52:47;100001.69;;;42.67;nan
43814;BME280;29669;55.706;37.656;2022-08-01T13:56:08;100008.66;;;40.49;nan
43814;BME280;29669;55.706;37.656;2022-08-01T13:59:31;99994.31;;;38.32;nan
43814;BME280;29669;55.706;37.656;2022-08-01T14:02:53;100007.53;;;36.99;nan
43814;BME280;29669;55.706;37.656;2022-08-01T14:06:14;99999.59;;;38.65;nan
43814;BME280;29669;55.706;37.656;2022-08-01T14:09:36;100004.50;;;40.35;nan
43814;BME280;29669;55.706;37.656;2022-08-01T14:13:03;99992.34;;;39.98;nan
43814;BME280;29669;55.706;37.656;2022-08-01T14:16:24;100000.13;;;38.58;nan
43814;BME280;29669;55.706;37.656;2022-08-01T14:19:46;99999.44;;;38.73;nan
43814;BME280;29669;55.706;37.656;2022-08-01T14:23:08;100003.59;;;37.62;nan
43814;BME280;29669;55.706;37.656;2022-08-01T14:26:31;100010.53;;;35.98;nan
43814;BME280;29669;55.706;37.656;2022-08-01T14:29:53;100004.00;;;35.36;nan
43814;BME280;29669;55.706;37.656;2022-08-01T14:33:14;100005.59;;;35.37;nan
43814;BME280;29669;55.706;37.656;2022-08-01T14:36:35;100010.66;;;35.55;nan
43814;BME280;29669;55.706;37.656;2022-08-01T14:40:00;99997.31;;;38.18;nan
43814;BME280;29669;55.706;37.656;2022-08-01T14:43:23;100000.22;;;40.19;nan
43814;BME280;29669;55.706;37.656;2022-08-01T14:46:47;99996.13;;;39.63;nan
43814;BME280;29669;55.706;37.656;2022-08-01T14:50:05;99995.44;;;39.38;nan
43814;BME280;29669;55.706;37.656;2022-08-01T14:53:27;99994.47;;;40.40;nan
43814;BME280;29669;55.706;37.656;2022-08-01T14:56:53;99994.50;;;41.77;nan
43814;BME280;29669;55.706;37.656;2022-08-01T15:00:14;99984.75;;;42.84;nan
43814;BME280;29669;55.706;37.656;2022-08-01T15:03:35;99974.38;;;43.37;nan
43814;BME280;29669;55.706;37.656;2022-08-01T15:06:56;99976.22;;;42.03;nan
43814;BME280;29669;55.706;37.656;2022-08-01T15:10:17;99981.53;;;39.86;nan
43814;BME280;29669;55.706;37.656;2022-08-01T15:13:38;99980.03;;;37.99;nan
43814;BME280;29669;55.706;37.656;2022-08-01T15:17:01;99979.56;;;36.74;nan
43814;BME280;29669;55.706;37.656;2022-08-01T15:20:22;99976.72;;;36.50;nan
43814;BME280;29669;55.706;37.656;2022-08-01T15:23:43;99982.69;;;36.35;nan
43814;BME280;29669;55.706;37.656;2022-08-01T15:27:05;99972.69;;;35.98;nan
43814;BME280;29669;55.706;37.656;2022-08-01T15:30:26;99980.53;;;34.93;nan
43814;BME280;29669;55.706;37.656;2022-08-01T15:33:48;99981.53;;;33.76;nan
43814;BME280;29669;55.706;37.656;2022-08-01T15:37:03;99976.78;;;32.71;nan
43814;BME280;29669;55.706;37.656;2022-08-01T15:40:24;99980.34;;;32.04;nan
43814;BME280;29669;55.706;37.656;2022-08-01T15:43:48;99971.41;;;31.63;nan
43814;BME280;29669;55.706;37.656;2022-08-01T15:47:10;99971.41;;;31.30;nan
43814;BME280;29669;55.706;37.656;2022-08-01T15:50:31;99963.31;;;31.03;nan
43814;BME280;29669;55.706;37.656;2022-08-01T15:53:52;99967.50;;;30.91;nan
43814;BME280;29669;55.706;37.656;2022-08-01T15:57:20;99965.81;;;30.76;nan
43814;BME280;29669;55.706;37.656;2022-08-01T16:00:41;99970.97;;;30.73;nan
43814;BME280;29669;55.706;37.656;2022-08-01T16:04:02;99970.56;;;30.84;nan
43814;BME280;29669;55.706;37.656;2022-08-01T16:07:24;99974.03;;;31.35;nan
43814;BME280;29669;55.706;37.656;2022-08-01T16:11:05;99967.69;;;32.31;nan
43814;BME280;29669;55.706;37.656;2022-08-01T16:14:29;99967.28;;;33.84;nan
43814;BME280;29669;55.706;37.656;2022-08-01T16:17:50;99968.00;;;35.15;nan
43814;BME280;29669;55.706;37.656;2022-08-01T16:21:11;99962.47;;;36.12;nan
43814;BME280;29669;55.706;37.656;2022-08-01T16:24:33;99968.28;;;35.93;nan
43814;BME280;29669;55.706;37.656;2022-08-01T16:27:56;99977.38;;;35.09;nan
43814;BME280;29669;55.706;37.656;2022-08-01T16:31:18;99968.56;;;33.48;nan
43814;BME280;29669;55.706;37.656;2022-08-01T16:34:59;99974.25;;;31.85;nan
43814;BME280;29669;55.706;37.656;2022-08-01T16:38:23;99978.91;;;30.78;nan
43814;BME280;29669;55.706;37.656;2022-08-01T16:41:47;99981.19;;;30.05;nan
43814;BME280;29669;55.706;37.656;2022-08-01T16:45:10;99975.53;;;29.54;nan
43814;BME280;29669;55.706;37.656;2022-08-01T16:48:33;99979.09;;;29.06;nan
43814;BME280;29669;55.706;37.656;2022-08-01T16:51:58;99972.16;;;28.66;nan
43814;BME280;29669;55.706;37.656;2022-08-01T16:55:12;99978.97;;;28.28;nan
43814;BME280;29669;55.706;37.656;2022-08-01T16:58:56;99986.28;;;27.82;nan
43814;BME280;29669;55.706;37.656;2022-08-01T17:02:20;99985.28;;;27.43;nan
43814;BME280;29669;55.706;37.656;2022-08-01T17:05:41;99988.44;;;27.10;nan
43814;BME280;29669;55.706;37.656;2022-08-01T17:09:03;99984.94;;;26.79;nan
43814;BME280;29669;55.706;37.656;2022-08-01T17:12:28;99992.28;;;26.52;nan
43814;BME280;29669;55.706;37.656;2022-08-01T17:15:49;99984.97;;;26.23;nan
43814;BME280;29669;55.706;37.656;2022-08-01T17:19:12;99990.66;;;25.94;nan
43814;BME280;29669;55.706;37.656;2022-08-01T17:22:39;99984.09;;;25.70;nan
43814;BME280;29669;55.706;37.656;2022-08-01T17:26:03;99990.84;;;25.46;nan
43814;BME280;29669;55.706;37.656;2022-08-01T17:29:24;99990.38;;;25.23;nan
43814;BME280;29669;55.706;37.656;2022-08-01T17:32:50;99995.16;;;24.99;nan
43814;BME280;29669;55.706;37.656;2022-08-01T17:36:06;99996.28;;;24.76;nan
43814;BME280;29669;55.706;37.656;2022-08-01T17:39:28;99999.47;;;24.57;nan
43814;BME280;29669;55.706;37.656;2022-08-01T17:42:45;100000.34;;;24.41;nan
43814;BME280;29669;55.706;37.656;2022-08-01T17:46:08;100000.16;;;24.25;nan
43814;BME280;29669;55.706;37.656;2022-08-01T17:49:30;100010.06;;;24.13;nan
43814;BME280;29669;55.706;37.656;2022-08-01T17:53:00;100013.03;;;24.00;nan
43814;BME280;29669;55.706;37.656;2022-08-01T17:56:21;100012.56;;;23.87;nan
43814;BME280;29669;55.706;37.656;2022-08-01T17:59:35;100006.78;;;23.73;nan
43814;BME280;29669;55.706;37.656;2022-08-01T18:02:59;100010.13;;;23.64;nan
43814;BME280;29669;55.706;37.656;2022-08-01T18:06:24;100013.97;;;23.56;nan
43814;BME280;29669;55.706;37.656;2022-08-01T18:09:46;100013.47;;;23.43;nan
43814;BME280;29669;55.706;37.656;2022-08-01T18:13:10;100013.63;;;23.36;nan
43814;BME280;29669;55.706;37.656;2022-08-01T18:16:31;100014.47;;;23.25;nan
43814;BME280;29669;55.706;37.656;2022-08-01T18:19:52;100015.34;;;23.14;nan
43814;BME280;29669;55.706;37.656;2022-08-01T18:23:13;100019.41;;;23.05;nan
43814;BME280;29669;55.706;37.656;2022-08-01T18:26:34;100029.66;;;23.01;nan
43814;BME280;29669;55.706;37.656;2022-08-01T18:29:58;100029.25;;;22.93;nan
43814;BME280;29669;55.706;37.656;2022-08-01T18:33:23;100032.75;;;22.82;nan
43814;BME280;29669;55.706;37.656;2022-08-01T18:36:44;100031.50;;;22.73;nan
43814;BME280;29669;55.706;37.656;2022-08-01T18:40:05;100039.09;;;22.69;nan